Time,TemperatureF,DewpointF,PressureIn,WindDirection,WindDirectionDegrees,WindSpeedMPH,WindSpeedGustMPH,Humidity,HourlyPrecipIn,Conditions,Clouds,dailyrainin,SoftwareType,DateUTC
2013-07-20 00:00:00,82.8,73.7,29.84,SW,232,0.0,222.8,74,0.25,,,0.00,VWS V14.01,2013-07-20 04:00:00,
2013-07-20 00:01:00,83.0,73.5,29.84,SW,232,0.0,222.8,73,0.25,,,0.00,VWS V14.01,2013-07-20 04:01:00,
2013-07-20 00:02:00,82.8,73.1,29.84,SW,232,0.0,222.8,72,0.25,,,0.00,VWS V14.01,2013-07-20 04:02:00,
2013-07-20 00:03:00,82.5,74.0,29.85,NW,325,0.0,222.8,76,0.25,,,0.00,VWS V14.01,2013-07-20 04:03:00,
2013-07-20 00:05:00,82.4,73.9,29.85,NW,325,0.0,222.8,76,0.25,,,0.00,VWS V14.01,2013-07-20 04:05:00,
2013-07-20 00:06:00,82.5,74.0,29.85,NW,325,0.0,222.8,76,0.25,,,0.00,VWS V14.01,2013-07-20 04:06:00,
2013-07-20 00:07:00,82.5,74.0,29.85,NW,325,0.0,222.8,76,0.25,,,0.00,VWS V14.01,2013-07-20 04:07:00,
2013-07-20 00:08:00,83.1,72.6,29.84,SW,232,0.0,222.8,71,0.25,,,0.00,VWS V14.01,2013-07-20 04:08:00,
2013-07-20 00:09:00,83.2,72.4,29.84,SW,232,0.0,222.8,70,0.25,,,0.00,VWS V14.01,2013-07-20 04:09:00,
2013-07-20 00:10:00,82.5,74.1,29.85,NW,325,0.0,222.8,76,0.25,,,0.00,VWS V14.01,2013-07-20 04:10:00,
2013-07-20 00:11:00,82.4,74.1,29.85,NW,325,0.0,222.8,76,0.25,,,0.00,VWS V14.01,2013-07-20 04:11:00,
2013-07-20 00:12:00,82.4,74.0,29.85,NW,325,0.0,222.8,76,0.25,,,0.00,VWS V14.01,2013-07-20 04:12:00,
2013-07-20 00:13:00,82.4,74.0,29.85,NW,325,0.0,222.8,76,0.25,,,0.00,VWS V14.01,2013-07-20 04:13:00,
2013-07-20 00:14:00,83.5,72.7,29.84,SW,232,0.0,222.8,70,0.25,,,0.00,VWS V14.01,2013-07-20 04:14:00,
2013-07-20 00:15:00,82.3,73.9,29.85,NW,325,0.0,222.8,76,0.25,,,0.00,VWS V14.01,2013-07-20 04:15:00,
2013-07-20 00:16:00,82.2,73.8,29.85,NW,325,0.0,222.8,76,0.25,,,0.00,VWS V14.01,2013-07-20 04:16:00,
2013-07-20 00:17:00,82.2,73.8,29.85,NW,325,0.0,222.8,76,0.25,,,0.00,VWS V14.01,2013-07-20 04:17:00,
2013-07-20 00:18:00,82.2,73.9,29.85,NW,325,0.0,222.8,76,0.25,,,0.00,VWS V14.01,2013-07-20 04:18:00,
2013-07-20 00:19:00,83.7,72.5,29.85,SW,232,0.0,222.8,69,0.25,,,0.00,VWS V14.01,2013-07-20 04:19:00,
2013-07-20 00:20:00,82.3,74.0,29.85,NW,325,0.0,222.8,76,0.25,,,0.00,VWS V14.01,2013-07-20 04:20:00,
2013-07-20 00:21:00,82.1,73.8,29.85,West,263,4.7,222.8,76,0.25,,,0.00,VWS V14.01,2013-07-20 04:21:00,
2013-07-20 00:22:00,82.0,73.8,29.85,West,280,0.0,222.8,76,0.25,,,0.00,VWS V14.01,2013-07-20 04:22:00,
2013-07-20 00:23:00,83.7,72.5,29.85,SW,232,0.0,222.8,69,0.25,,,0.00,VWS V14.01,2013-07-20 04:23:00,
2013-07-20 00:24:00,82.1,74.0,29.85,West,280,0.0,222.8,76,0.25,,,0.00,VWS V14.01,2013-07-20 04:24:00,
2013-07-20 00:25:00,82.1,73.9,29.85,West,280,0.0,222.8,76,0.25,,,0.00,VWS V14.01,2013-07-20 04:25:00,
2013-07-20 00:26:00,82.2,74.1,29.85,West,280,0.0,222.8,77,0.25,,,0.00,VWS V14.01,2013-07-20 04:26:00,
2013-07-20 00:27:00,82.1,74.0,29.85,West,280,0.0,222.8,77,0.25,,,0.00,VWS V14.01,2013-07-20 04:27:00,
2013-07-20 00:28:00,83.8,72.6,29.85,SW,232,0.0,222.8,69,0.25,,,0.00,VWS V14.01,2013-07-20 04:28:00,
2013-07-20 00:29:00,82.1,73.9,29.85,West,280,0.0,222.8,76,0.25,,,0.00,VWS V14.01,2013-07-20 04:29:00,
2013-07-20 00:30:00,82.1,73.9,29.85,West,280,0.0,222.8,76,0.25,,,0.00,VWS V14.01,2013-07-20 04:30:00,
2013-07-20 00:32:00,82.1,74.1,29.85,West,280,0.0,222.8,77,0.25,,,0.00,VWS V14.01,2013-07-20 04:32:00,
2013-07-20 00:33:00,81.7,73.7,29.85,West,280,0.0,222.8,77,0.25,,,0.00,VWS V14.01,2013-07-20 04:33:00,
2013-07-20 00:34:00,83.7,73.3,29.85,SW,232,0.0,222.8,71,0.25,,,0.00,VWS V14.01,2013-07-20 04:34:00,
2013-07-20 00:35:00,81.9,73.8,29.85,West,280,0.0,222.8,76,0.25,,,0.00,VWS V14.01,2013-07-20 04:35:00,
2013-07-20 00:36:00,81.8,73.7,29.85,West,280,0.0,222.8,76,0.25,,,0.00,VWS V14.01,2013-07-20 04:36:00,
2013-07-20 00:37:00,81.9,73.6,29.85,WSW,238,0.0,222.8,76,0.25,,,0.00,VWS V14.01,2013-07-20 04:37:00,
2013-07-20 00:38:00,81.9,73.6,29.85,WSW,238,0.0,222.8,76,0.25,,,0.00,VWS V14.01,2013-07-20 04:38:00,
2013-07-20 00:39:00,83.4,73.5,29.85,SW,232,0.0,222.8,72,0.25,,,0.00,VWS V14.01,2013-07-20 04:39:00,
2013-07-20 00:40:00,81.9,73.6,29.85,WSW,238,0.0,222.8,76,0.25,,,0.00,VWS V14.01,2013-07-20 04:40:00,
2013-07-20 00:41:00,81.8,73.5,29.85,SW,232,0.0,222.8,76,0.25,,,0.00,VWS V14.01,2013-07-20 04:41:00,
2013-07-20 00:42:00,81.7,73.3,29.85,SW,232,0.0,222.8,76,0.25,,,0.00,VWS V14.01,2013-07-20 04:42:00,
2013-07-20 00:43:00,81.8,73.4,29.85,West,264,0.0,222.8,76,0.25,,,0.00,VWS V14.01,2013-07-20 04:43:00,
2013-07-20 00:44:00,83.3,74.0,29.85,West,263,0.0,222.8,74,0.25,,,0.00,VWS V14.01,2013-07-20 04:44:00,
2013-07-20 00:45:00,81.9,73.6,29.85,West,264,0.0,222.8,76,0.25,,,0.00,VWS V14.01,2013-07-20 04:45:00,
2013-07-20 00:46:00,81.9,73.7,29.85,SSW,200,0.0,222.8,76,0.25,,,0.00,VWS V14.01,2013-07-20 04:46:00,
2013-07-20 00:47:00,81.8,73.7,29.85,SSW,200,0.0,222.8,76,0.25,,,0.00,VWS V14.01,2013-07-20 04:47:00,
2013-07-20 00:48:00,81.8,73.5,29.85,SSW,200,0.0,222.8,76,0.25,,,0.00,VWS V14.01,2013-07-20 04:48:00,
2013-07-20 00:49:00,83.0,74.2,29.85,SW,235,0.0,222.8,75,0.25,,,0.00,VWS V14.01,2013-07-20 04:49:00,
2013-07-20 00:50:00,81.7,73.4,29.85,SSW,200,0.0,222.8,76,0.25,,,0.00,VWS V14.01,2013-07-20 04:50:00,
2013-07-20 00:51:00,81.8,73.5,29.85,SSW,200,0.0,222.8,76,0.25,,,0.00,VWS V14.01,2013-07-20 04:51:00,
2013-07-20 00:52:00,81.8,73.5,29.85,SSW,200,0.0,222.8,76,0.25,,,0.00,VWS V14.01,2013-07-20 04:52:00,
2013-07-20 00:53:00,81.6,73.4,29.85,SSW,207,0.0,222.8,76,0.25,,,0.00,VWS V14.01,2013-07-20 04:53:00,
2013-07-20 00:54:00,82.6,74.2,29.85,NW,325,0.0,222.8,76,0.25,,,0.00,VWS V14.01,2013-07-20 04:54:00,
2013-07-20 00:55:00,81.4,73.2,29.85,SSW,207,0.0,222.8,76,0.25,,,0.00,VWS V14.01,2013-07-20 04:55:00,
2013-07-20 00:56:00,81.6,73.3,29.85,SSW,207,0.0,222.8,76,0.25,,,0.00,VWS V14.01,2013-07-20 04:56:00,
2013-07-20 00:57:00,81.5,73.2,29.85,SSW,195,0.0,222.8,76,0.25,,,0.00,VWS V14.01,2013-07-20 04:57:00,
2013-07-20 00:58:00,81.5,73.2,29.85,SSW,195,0.0,222.8,76,0.25,,,0.00,VWS V14.01,2013-07-20 04:58:00,
2013-07-20 01:00:00,81.6,73.3,29.85,SSW,195,0.0,222.8,76,0.25,,,0.00,VWS V14.01,2013-07-20 05:00:00,
2013-07-20 01:01:00,81.5,73.1,29.85,SSW,195,0.0,222.8,76,0.25,,,0.00,VWS V14.01,2013-07-20 05:01:00,
2013-07-20 01:02:00,81.6,73.2,29.85,SSW,195,0.0,222.8,76,0.25,,,0.00,VWS V14.01,2013-07-20 05:02:00,
2013-07-20 01:03:00,81.5,73.1,29.85,SSW,195,0.0,222.8,76,0.25,,,0.00,VWS V14.01,2013-07-20 05:03:00,
2013-07-20 01:04:00,81.5,73.1,29.85,SSW,195,0.0,222.8,76,0.25,,,0.00,VWS V14.01,2013-07-20 05:04:00,
2013-07-20 01:05:00,81.4,73.0,29.85,SSW,195,0.0,222.8,76,0.25,,,0.00,VWS V14.01,2013-07-20 05:05:00,
2013-07-20 01:06:00,81.4,73.0,29.85,SSW,195,0.0,222.8,76,0.25,,,0.00,VWS V14.01,2013-07-20 05:06:00,
2013-07-20 01:07:00,81.5,73.1,29.85,SSW,195,0.0,222.8,76,0.25,,,0.00,VWS V14.01,2013-07-20 05:07:00,
2013-07-20 01:08:00,81.5,73.0,29.85,SSW,195,0.0,222.8,75,0.25,,,0.00,VWS V14.01,2013-07-20 05:08:00,
2013-07-20 01:11:00,81.3,72.8,29.85,WNW,284,0.0,222.8,75,0.25,,,0.00,VWS V14.01,2013-07-20 05:11:00,
2013-07-20 01:12:00,81.5,73.1,29.84,WNW,284,0.0,222.8,76,0.25,,,0.00,VWS V14.01,2013-07-20 05:12:00,
2013-07-20 01:14:00,81.4,73.0,29.84,NW,307,0.0,222.8,76,0.25,,,0.00,VWS V14.01,2013-07-20 05:14:00,
2013-07-20 01:15:00,81.5,73.2,29.84,NW,307,0.0,222.8,76,0.25,,,0.00,VWS V14.01,2013-07-20 05:15:00,
2013-07-20 01:16:00,81.4,73.1,29.84,NW,307,0.0,222.8,76,0.25,,,0.00,VWS V14.01,2013-07-20 05:16:00,
2013-07-20 01:17:00,81.3,73.0,29.84,NW,307,0.0,222.8,76,0.25,,,0.00,VWS V14.01,2013-07-20 05:17:00,
2013-07-20 01:18:00,81.4,73.2,29.85,NW,307,0.0,222.8,76,0.25,,,0.00,VWS V14.01,2013-07-20 05:18:00,
2013-07-20 01:19:00,81.4,73.2,29.85,NW,307,0.0,222.8,76,0.25,,,0.00,VWS V14.01,2013-07-20 05:19:00,
2013-07-20 01:20:00,81.3,73.1,29.85,SW,224,0.0,222.8,76,0.25,,,0.00,VWS V14.01,2013-07-20 05:20:00,
2013-07-20 01:24:00,81.3,73.1,29.85,SW,224,0.0,222.8,76,0.25,,,0.00,VWS V14.01,2013-07-20 05:24:00,
2013-07-20 01:25:00,81.2,73.0,29.84,SW,224,0.0,222.8,76,0.25,,,0.00,VWS V14.01,2013-07-20 05:25:00,
2013-07-20 01:28:00,81.1,73.1,29.84,SSW,200,0.0,222.8,77,0.25,,,0.00,VWS V14.01,2013-07-20 05:28:00,
2013-07-20 01:29:00,81.2,73.2,29.84,SSW,200,0.0,222.8,77,0.25,,,0.00,VWS V14.01,2013-07-20 05:29:00,
2013-07-20 01:30:00,81.2,73.2,29.84,SSW,200,0.0,222.8,77,0.25,,,0.00,VWS V14.01,2013-07-20 05:30:00,
2013-07-20 01:31:00,81.0,73.0,29.84,SSW,200,0.0,222.8,77,0.25,,,0.00,VWS V14.01,2013-07-20 05:31:00,
2013-07-20 01:32:00,81.1,73.1,29.84,WSW,238,0.0,222.8,77,0.25,,,0.00,VWS V14.01,2013-07-20 05:32:00,
2013-07-20 01:33:00,80.7,72.8,29.84,WSW,238,0.0,222.8,77,0.25,,,0.00,VWS V14.01,2013-07-20 05:33:00,
2013-07-20 01:35:00,81.1,73.2,29.84,WSW,238,0.0,222.8,77,0.25,,,0.00,VWS V14.01,2013-07-20 05:35:00,
2013-07-20 01:38:00,81.1,73.2,29.84,WNW,301,0.0,222.8,77,0.25,,,0.00,VWS V14.01,2013-07-20 05:38:00,
2013-07-20 01:39:00,81.1,73.2,29.84,WNW,301,0.0,222.8,77,0.25,,,0.00,VWS V14.01,2013-07-20 05:39:00,
2013-07-20 01:40:00,81.2,73.3,29.84,WNW,301,0.0,222.8,77,0.25,,,0.00,VWS V14.01,2013-07-20 05:40:00,
2013-07-20 01:42:00,80.9,73.1,29.84,WNW,301,0.0,222.8,77,0.25,,,0.00,VWS V14.01,2013-07-20 05:42:00,
2013-07-20 01:44:00,80.7,72.9,29.84,WNW,301,0.0,222.8,77,0.25,,,0.00,VWS V14.01,2013-07-20 05:44:00,
2013-07-20 01:45:00,80.8,73.1,29.84,WNW,301,0.0,222.8,78,0.25,,,0.00,VWS V14.01,2013-07-20 05:45:00,
2013-07-20 01:47:00,81.0,73.3,29.84,WNW,301,0.0,222.8,77,0.25,,,0.00,VWS V14.01,2013-07-20 05:47:00,
2013-07-20 01:48:00,80.6,73.0,29.83,WNW,301,0.0,222.8,78,0.25,,,0.00,VWS V14.01,2013-07-20 05:48:00,
2013-07-20 01:49:00,80.8,73.2,29.83,WNW,301,0.0,222.8,78,0.25,,,0.00,VWS V14.01,2013-07-20 05:49:00,
2013-07-20 01:50:00,80.8,73.1,29.83,WNW,301,0.0,222.8,77,0.25,,,0.00,VWS V14.01,2013-07-20 05:50:00,
2013-07-20 01:51:00,80.9,73.3,29.84,WNW,301,0.0,222.8,78,0.25,,,0.00,VWS V14.01,2013-07-20 05:51:00,
2013-07-20 01:56:00,80.5,73.0,29.83,WNW,301,0.0,222.8,78,0.25,,,0.00,VWS V14.01,2013-07-20 05:56:00,
2013-07-20 01:58:00,80.5,73.1,29.83,WNW,301,0.0,222.8,78,0.25,,,0.00,VWS V14.01,2013-07-20 05:58:00,
2013-07-20 02:06:00,81.6,73.1,29.85,SSW,195,0.0,222.8,75,0.25,,,0.00,VWS V14.01,2013-07-20 06:06:00,
2013-07-20 02:18:00,81.5,73.2,29.85,SW,224,0.0,222.8,76,0.25,,,0.00,VWS V14.01,2013-07-20 06:18:00,
2013-07-20 02:19:00,80.1,73.3,29.83,WNW,301,0.0,222.8,80,0.25,,,0.00,VWS V14.01,2013-07-20 06:19:00,
2013-07-20 02:24:00,81.4,73.3,29.84,SW,218,6.0,222.8,76,0.25,,,0.00,VWS V14.01,2013-07-20 06:24:00,
2013-07-20 02:31:00,80.9,73.0,29.84,WSW,238,0.0,222.8,77,0.25,,,0.00,VWS V14.01,2013-07-20 06:31:00,
2013-07-20 02:38:00,81.0,73.2,29.84,WNW,301,0.0,222.8,77,0.25,,,0.00,VWS V14.01,2013-07-20 06:38:00,
2013-07-20 02:43:00,80.8,73.2,29.84,WNW,301,0.0,222.8,78,0.25,,,0.00,VWS V14.01,2013-07-20 06:43:00,
2013-07-20 02:50:00,80.7,73.1,29.83,WNW,301,0.0,222.8,78,0.25,,,0.00,VWS V14.01,2013-07-20 06:50:00,
2013-07-20 02:51:00,79.3,73.2,29.82,WNW,301,0.0,222.8,82,0.25,,,0.00,VWS V14.01,2013-07-20 06:51:00,
2013-07-20 02:52:00,79.4,73.4,29.82,WNW,301,0.0,222.8,82,0.25,,,0.00,VWS V14.01,2013-07-20 06:52:00,
2013-07-20 02:56:00,80.4,72.9,29.83,WNW,301,0.0,222.8,78,0.25,,,0.00,VWS V14.01,2013-07-20 06:56:00,
2013-07-20 03:01:00,80.6,73.3,29.83,WNW,301,0.0,222.8,78,0.25,,,0.00,VWS V14.01,2013-07-20 07:01:00,
2013-07-20 03:06:00,80.4,73.2,29.83,WNW,301,0.0,222.8,79,0.25,,,0.00,VWS V14.01,2013-07-20 07:06:00,
2013-07-20 03:11:00,80.3,73.4,29.83,WNW,301,0.0,222.8,80,0.25,,,0.00,VWS V14.01,2013-07-20 07:11:00,
2013-07-20 03:18:00,80.1,73.4,29.83,WNW,301,0.0,222.8,80,0.25,,,0.00,VWS V14.01,2013-07-20 07:18:00,
2013-07-20 03:23:00,80.0,73.4,29.83,WNW,301,0.0,222.8,80,0.25,,,0.00,VWS V14.01,2013-07-20 07:23:00,
2013-07-20 03:28:00,79.8,73.2,29.83,WNW,301,0.0,222.8,80,0.25,,,0.00,VWS V14.01,2013-07-20 07:28:00,
2013-07-20 03:33:00,79.4,73.0,29.83,WNW,301,0.0,222.8,81,0.25,,,0.00,VWS V14.01,2013-07-20 07:33:00,
2013-07-20 03:38:00,79.7,73.5,29.82,WNW,301,0.0,222.8,82,0.25,,,0.00,VWS V14.01,2013-07-20 07:38:00,
2013-07-20 03:44:00,79.3,73.2,29.82,WNW,301,0.0,222.8,82,0.25,,,0.00,VWS V14.01,2013-07-20 07:44:00,
2013-07-20 03:50:00,79.5,73.6,29.82,WNW,301,0.0,222.8,82,0.25,,,0.00,VWS V14.01,2013-07-20 07:50:00,
2013-07-20 03:55:00,79.2,73.4,29.82,West,281,0.0,222.8,83,0.25,,,0.00,VWS V14.01,2013-07-20 07:55:00,
2013-07-20 04:00:00,79.0,73.3,29.82,West,281,0.0,222.8,83,0.25,,,0.00,VWS V14.01,2013-07-20 08:00:00,
2013-07-20 04:05:00,79.2,73.4,29.81,West,281,0.0,222.8,82,0.25,,,0.00,VWS V14.01,2013-07-20 08:05:00,
2013-07-20 04:11:00,79.1,73.2,29.81,West,281,0.0,222.8,82,0.25,,,0.00,VWS V14.01,2013-07-20 08:11:00,
2013-07-20 04:16:00,79.0,73.0,29.81,West,281,0.0,222.8,82,0.25,,,0.00,VWS V14.01,2013-07-20 08:16:00,
2013-07-20 04:21:00,78.9,73.2,29.80,West,281,0.0,222.8,83,0.25,,,0.00,VWS V14.01,2013-07-20 08:21:00,
2013-07-20 04:27:00,79.0,73.6,29.81,West,281,0.0,222.8,84,0.25,,,0.00,VWS V14.01,2013-07-20 08:27:00,
2013-07-20 04:32:00,78.4,73.2,29.80,West,281,0.0,222.8,84,0.25,,,0.00,VWS V14.01,2013-07-20 08:32:00,
2013-07-20 04:37:00,78.3,73.0,29.80,West,281,0.0,222.8,84,0.25,,,0.00,VWS V14.01,2013-07-20 08:37:00,
2013-07-20 04:42:00,78.3,73.1,29.80,West,281,0.0,222.8,84,0.25,,,0.00,VWS V14.01,2013-07-20 08:42:00,
2013-07-20 04:47:00,78.2,72.9,29.80,West,281,0.0,222.8,84,0.25,,,0.00,VWS V14.01,2013-07-20 08:47:00,
2013-07-20 04:52:00,78.2,73.2,29.80,West,281,0.0,222.8,84,0.25,,,0.00,VWS V14.01,2013-07-20 08:52:00,
2013-07-20 04:58:00,77.9,73.0,29.80,West,281,0.0,222.8,85,0.25,,,0.00,VWS V14.01,2013-07-20 08:58:00,
2013-07-20 05:03:00,77.9,72.8,29.80,West,281,0.0,222.8,84,0.25,,,0.00,VWS V14.01,2013-07-20 09:03:00,
2013-07-20 05:08:00,77.8,72.7,29.80,West,281,0.0,222.8,84,0.25,,,0.00,VWS V14.01,2013-07-20 09:08:00,
2013-07-20 05:13:00,77.8,72.7,29.81,West,281,0.0,222.8,84,0.25,,,0.00,VWS V14.01,2013-07-20 09:13:00,
2013-07-20 05:19:00,77.5,72.5,29.81,West,281,0.0,222.8,85,0.25,,,0.00,VWS V14.01,2013-07-20 09:19:00,
2013-07-20 05:24:00,77.8,73.0,29.82,West,281,0.0,222.8,85,0.25,,,0.00,VWS V14.01,2013-07-20 09:24:00,
2013-07-20 05:29:00,77.4,72.7,29.82,West,281,0.0,222.8,85,0.25,,,0.00,VWS V14.01,2013-07-20 09:29:00,
2013-07-20 05:34:00,77.3,72.8,29.82,West,281,0.0,222.8,86,0.25,,,0.00,VWS V14.01,2013-07-20 09:34:00,
2013-07-20 05:39:00,77.2,73.0,29.82,West,281,0.0,222.8,87,0.25,,,0.00,VWS V14.01,2013-07-20 09:39:00,
2013-07-20 05:44:00,77.1,72.9,29.81,West,281,0.0,222.8,87,0.25,,,0.00,VWS V14.01,2013-07-20 09:44:00,
2013-07-20 05:50:00,77.1,72.9,29.81,West,281,0.0,222.8,87,0.25,,,0.00,VWS V14.01,2013-07-20 09:50:00,
2013-07-20 05:55:00,77.0,72.9,29.81,West,281,0.0,222.8,87,0.25,,,0.00,VWS V14.01,2013-07-20 09:55:00,
2013-07-20 06:00:00,77.0,72.9,29.81,West,281,0.0,222.8,87,0.25,,,0.00,VWS V14.01,2013-07-20 10:00:00,
2013-07-20 06:05:00,76.8,72.8,29.82,West,281,0.0,222.8,87,0.25,,,0.00,VWS V14.01,2013-07-20 10:05:00,
2013-07-20 06:10:00,76.9,72.8,29.82,West,281,0.0,222.8,87,0.25,,,0.00,VWS V14.01,2013-07-20 10:10:00,
2013-07-20 06:16:00,76.8,72.7,29.82,West,281,0.0,222.8,87,0.25,,,0.00,VWS V14.01,2013-07-20 10:16:00,
2013-07-20 06:21:00,77.0,72.7,29.82,West,281,0.0,222.8,86,0.25,,,0.00,VWS V14.01,2013-07-20 10:21:00,
2013-07-20 06:26:00,77.1,72.6,29.82,West,281,0.0,222.8,86,0.25,,,0.00,VWS V14.01,2013-07-20 10:26:00,
2013-07-20 06:31:00,77.2,72.6,29.82,West,281,0.0,222.8,86,0.25,,,0.00,VWS V14.01,2013-07-20 10:31:00,
2013-07-20 06:37:00,77.3,72.8,29.82,West,281,0.0,222.8,86,0.25,,,0.00,VWS V14.01,2013-07-20 10:37:00,
2013-07-20 06:42:00,77.7,72.9,29.82,West,281,0.0,222.8,85,0.25,,,0.00,VWS V14.01,2013-07-20 10:42:00,
2013-07-20 06:47:00,77.8,72.6,29.83,West,281,0.0,222.8,84,0.25,,,0.00,VWS V14.01,2013-07-20 10:47:00,
2013-07-20 06:52:00,78.0,72.6,29.83,West,281,0.0,222.8,84,0.25,,,0.00,VWS V14.01,2013-07-20 10:52:00,
2013-07-20 06:57:00,78.3,72.9,29.83,West,281,1.9,222.8,84,0.25,,,0.00,VWS V14.01,2013-07-20 10:57:00,
2013-07-20 07:03:00,78.2,72.8,29.83,West,281,0.0,222.8,83,0.25,,,0.00,VWS V14.01,2013-07-20 11:03:00,
2013-07-20 07:08:00,78.4,73.0,29.83,West,281,0.0,222.8,83,0.25,,,0.00,VWS V14.01,2013-07-20 11:08:00,
2013-07-20 07:14:00,78.2,72.9,29.83,WSW,250,0.0,222.8,84,0.25,,,0.00,VWS V14.01,2013-07-20 11:14:00,
2013-07-20 07:19:00,78.2,72.9,29.83,WSW,250,0.0,222.8,84,0.25,,,0.00,VWS V14.01,2013-07-20 11:19:00,
2013-07-20 07:24:00,78.3,72.8,29.84,WSW,250,0.0,222.8,83,0.25,,,0.00,VWS V14.01,2013-07-20 11:24:00,
2013-07-20 07:30:00,78.5,72.8,29.84,WSW,250,0.0,222.8,83,0.25,,,0.00,VWS V14.01,2013-07-20 11:30:00,
2013-07-20 07:35:00,78.5,72.6,29.84,WSW,250,0.0,222.8,82,0.25,,,0.00,VWS V14.01,2013-07-20 11:35:00,
2013-07-20 07:40:00,78.3,72.3,29.84,WSW,250,0.0,222.8,82,0.25,,,0.00,VWS V14.01,2013-07-20 11:40:00,
2013-07-20 07:45:00,78.4,72.4,29.84,WSW,250,0.0,222.8,82,0.25,,,0.00,VWS V14.01,2013-07-20 11:45:00,
2013-07-20 07:50:00,78.4,72.2,29.84,WSW,250,0.0,222.8,81,0.25,,,0.00,VWS V14.01,2013-07-20 11:50:00,
2013-07-20 07:55:00,78.8,72.5,29.84,WSW,250,0.0,222.8,81,0.25,,,0.00,VWS V14.01,2013-07-20 11:55:00,
2013-07-20 08:01:00,78.8,72.3,29.84,WSW,250,0.0,222.8,80,0.25,,,0.00,VWS V14.01,2013-07-20 12:01:00,
2013-07-20 08:06:00,79.3,72.4,29.84,WSW,250,0.0,222.8,80,0.25,,,0.00,VWS V14.01,2013-07-20 12:06:00,
2013-07-20 08:11:00,79.3,72.2,29.84,WSW,250,0.0,222.8,79,0.25,,,0.00,VWS V14.01,2013-07-20 12:11:00,
2013-07-20 08:16:00,79.3,72.3,29.84,WSW,250,0.0,222.8,79,0.25,,,0.00,VWS V14.01,2013-07-20 12:16:00,
2013-07-20 08:22:00,79.7,72.4,29.84,WSW,250,0.0,222.8,78,0.25,,,0.00,VWS V14.01,2013-07-20 12:22:00,
2013-07-20 08:27:00,79.4,72.1,29.84,West,280,0.0,222.8,78,0.25,,,0.00,VWS V14.01,2013-07-20 12:27:00,
2013-07-20 08:32:00,79.4,72.4,29.83,SW,218,0.0,222.8,79,0.25,,,0.00,VWS V14.01,2013-07-20 12:32:00,
2013-07-20 08:38:00,79.3,71.8,29.83,SW,218,0.0,222.8,78,0.25,,,0.00,VWS V14.01,2013-07-20 12:38:00,
2013-07-20 08:43:00,79.7,71.8,29.83,West,273,0.0,222.8,77,0.25,,,0.00,VWS V14.01,2013-07-20 12:43:00,
2013-07-20 08:49:00,80.2,71.7,29.82,WSW,242,0.0,222.8,75,0.25,,,0.00,VWS V14.01,2013-07-20 12:49:00,
2013-07-20 08:54:00,80.3,71.6,29.83,South,186,0.0,222.8,75,0.25,,,0.00,VWS V14.01,2013-07-20 12:54:00,
2013-07-20 08:59:00,80.9,71.4,29.83,SSE,160,0.0,222.8,73,0.25,,,0.00,VWS V14.01,2013-07-20 12:59:00,
2013-07-20 09:05:00,81.1,71.5,29.82,SSW,195,0.0,222.8,73,0.25,,,0.00,VWS V14.01,2013-07-20 13:05:00,
2013-07-20 09:12:00,81.5,70.9,29.82,SW,222,0.0,222.8,70,0.25,,,0.00,VWS V14.01,2013-07-20 13:12:00,
2013-07-20 09:18:00,82.1,70.9,29.83,SW,217,0.0,222.8,69,0.25,,,0.00,VWS V14.01,2013-07-20 13:18:00,
2013-07-20 09:23:00,81.9,70.9,29.83,SW,221,0.0,222.8,69,0.25,,,0.00,VWS V14.01,2013-07-20 13:23:00,
2013-07-20 09:28:00,82.3,71.1,29.83,West,274,0.0,222.8,69,0.25,,,0.00,VWS V14.01,2013-07-20 13:28:00,
2013-07-20 09:33:00,82.6,71.5,29.83,WSW,249,1.7,222.8,69,0.25,,,0.00,VWS V14.01,2013-07-20 13:33:00,
2013-07-20 09:39:00,83.1,71.1,29.83,WNW,302,5.2,222.8,67,0.25,,,0.00,VWS V14.01,2013-07-20 13:39:00,
2013-07-20 09:45:00,83.6,71.2,29.82,WSW,238,0.0,222.8,66,0.25,,,0.00,VWS V14.01,2013-07-20 13:45:00,
2013-07-20 09:51:00,84.1,71.0,29.82,SSE,155,0.0,222.8,65,0.25,,,0.00,VWS V14.01,2013-07-20 13:51:00,
2013-07-20 09:56:00,84.2,70.8,29.82,South,169,0.0,222.8,64,0.25,,,0.00,VWS V14.01,2013-07-20 13:56:00,
2013-07-20 10:01:00,84.4,71.2,29.82,SW,222,0.0,222.8,65,0.25,,,0.00,VWS V14.01,2013-07-20 14:01:00,
2013-07-20 10:07:00,85.1,71.3,29.83,West,263,3.1,222.8,63,0.25,,,0.00,VWS V14.01,2013-07-20 14:07:00,
2013-07-20 10:12:00,85.8,71.7,29.82,WNW,297,0.0,222.8,63,0.25,,,0.00,VWS V14.01,2013-07-20 14:12:00,
2013-07-20 10:17:00,86.4,70.9,29.82,WNW,297,0.0,222.8,60,0.25,,,0.00,VWS V14.01,2013-07-20 14:17:00,
2013-07-20 10:22:00,86.6,70.6,29.82,SSW,212,0.0,222.8,59,0.25,,,0.00,VWS V14.01,2013-07-20 14:22:00,
2013-07-20 10:27:00,86.8,70.8,29.82,WSW,238,0.0,222.8,59,0.25,,,0.00,VWS V14.01,2013-07-20 14:27:00,
2013-07-20 10:32:00,87.0,71.1,29.82,NW,315,0.0,222.8,59,0.25,,,0.00,VWS V14.01,2013-07-20 14:32:00,
2013-07-20 10:38:00,87.5,71.2,29.82,West,262,0.0,222.8,59,0.25,,,0.00,VWS V14.01,2013-07-20 14:38:00,
2013-07-20 10:43:00,87.9,71.3,29.82,West,262,0.0,222.8,58,0.25,,,0.00,VWS V14.01,2013-07-20 14:43:00,
2013-07-20 10:48:00,87.9,71.1,29.82,WNW,287,0.0,222.8,58,0.25,,,0.00,VWS V14.01,2013-07-20 14:48:00,
2013-07-20 10:53:00,88.3,71.1,29.82,WNW,302,0.0,222.8,57,0.25,,,0.00,VWS V14.01,2013-07-20 14:53:00,
2013-07-20 10:58:00,88.6,70.1,29.82,NNW,346,0.0,222.8,54,0.25,,,0.00,VWS V14.01,2013-07-20 14:58:00,
2013-07-20 11:04:00,88.9,70.1,29.81,WNW,288,3.2,222.8,54,0.25,,,0.00,VWS V14.01,2013-07-20 15:04:00,
2013-07-20 11:09:00,89.1,70.5,29.81,ENE,73,0.0,222.8,54,0.25,,,0.00,VWS V14.01,2013-07-20 15:09:00,
2013-07-20 11:14:00,89.7,70.9,29.81,SSW,202,0.0,222.8,54,0.25,,,0.00,VWS V14.01,2013-07-20 15:14:00,
2013-07-20 11:19:00,90.3,70.8,29.81,SW,236,0.0,222.8,53,0.25,,,0.00,VWS V14.01,2013-07-20 15:19:00,
2013-07-20 11:24:00,90.9,69.8,29.80,WNW,285,0.0,222.8,50,0.25,,,0.00,VWS V14.01,2013-07-20 15:24:00,
2013-07-20 11:30:00,91.4,71.0,29.80,West,276,0.0,222.8,51,0.25,,,0.00,VWS V14.01,2013-07-20 15:30:00,
2013-07-20 11:35:00,91.8,69.2,29.80,West,281,0.0,222.8,48,0.25,,,0.00,VWS V14.01,2013-07-20 15:35:00,
2013-07-20 11:40:00,92.4,69.6,29.79,WSW,255,0.0,222.8,48,0.25,,,0.00,VWS V14.01,2013-07-20 15:40:00,
2013-07-20 11:45:00,92.1,69.4,29.79,SW,229,0.0,222.8,48,0.25,,,0.00,VWS V14.01,2013-07-20 15:45:00,
2013-07-20 11:50:00,91.4,68.7,29.79,SSW,211,0.0,222.8,48,0.25,,,0.00,VWS V14.01,2013-07-20 15:50:00,
2013-07-20 11:55:00,91.3,69.0,29.79,SW,214,0.0,222.8,48,0.25,,,0.00,VWS V14.01,2013-07-20 15:55:00,
2013-07-20 12:01:00,91.5,68.7,29.79,SW,226,0.0,222.8,47,0.25,,,0.00,VWS V14.01,2013-07-20 16:01:00,
2013-07-20 12:06:00,91.9,69.6,29.79,NW,321,0.0,222.8,48,0.25,,,0.00,VWS V14.01,2013-07-20 16:06:00,
2013-07-20 12:11:00,92.0,69.2,29.80,SW,215,2.6,222.8,48,0.25,,,0.00,VWS V14.01,2013-07-20 16:11:00,
2013-07-20 12:12:00,92.0,68.8,29.80,SW,215,0.0,222.8,47,0.25,,,0.00,VWS V14.01,2013-07-20 16:12:00,
2013-07-20 12:17:00,91.8,66.7,29.79,West,274,0.0,222.8,44,0.25,,,0.00,VWS V14.01,2013-07-20 16:17:00,
2013-07-20 12:22:00,92.1,67.5,29.79,North,359,0.0,222.8,45,0.25,,,0.00,VWS V14.01,2013-07-20 16:22:00,
2013-07-20 12:28:00,92.4,68.1,29.79,SSW,212,0.0,222.8,45,0.25,,,0.00,VWS V14.01,2013-07-20 16:28:00,
2013-07-20 12:33:00,93.1,67.2,29.79,SSW,212,0.0,222.8,43,0.25,,,0.00,VWS V14.01,2013-07-20 16:33:00,
2013-07-20 12:38:00,92.8,66.6,29.79,North,359,2.7,222.8,42,0.25,,,0.00,VWS V14.01,2013-07-20 16:38:00,
2013-07-20 12:43:00,92.7,66.5,29.79,WSW,250,0.0,222.8,42,0.25,,,0.00,VWS V14.01,2013-07-20 16:43:00,
2013-07-20 12:48:00,93.0,65.6,29.79,NW,308,0.0,222.8,41,0.25,,,0.00,VWS V14.01,2013-07-20 16:48:00,
2013-07-20 12:54:00,93.0,65.7,29.79,West,267,0.0,222.8,41,0.25,,,0.00,VWS V14.01,2013-07-20 16:54:00,
2013-07-20 12:59:00,93.0,65.8,29.79,WNW,294,3.2,222.8,41,0.25,,,0.00,VWS V14.01,2013-07-20 16:59:00,
2013-07-20 13:04:00,93.7,66.4,29.79,West,264,5.6,222.8,41,0.25,,,0.00,VWS V14.01,2013-07-20 17:04:00,
2013-07-20 13:09:00,94.0,66.1,29.79,West,277,1.9,222.8,40,0.25,,,0.00,VWS V14.01,2013-07-20 17:09:00,
2013-07-20 13:14:00,94.1,66.7,29.79,WSW,252,0.0,222.8,41,0.25,,,0.00,VWS V14.01,2013-07-20 17:14:00,
2013-07-20 13:20:00,94.5,68.4,29.79,SW,235,0.0,222.8,43,0.25,,,0.00,VWS V14.01,2013-07-20 17:20:00,
2013-07-20 13:25:00,94.4,69.3,29.79,West,260,0.0,222.8,44,0.25,,,0.00,VWS V14.01,2013-07-20 17:25:00,
2013-07-20 13:30:00,94.4,68.1,29.79,West,260,0.0,222.8,42,0.25,,,0.00,VWS V14.01,2013-07-20 17:30:00,
2013-07-20 13:35:00,94.3,67.7,29.79,SW,231,0.0,222.8,42,0.25,,,0.00,VWS V14.01,2013-07-20 17:35:00,
2013-07-20 13:40:00,94.0,68.9,29.79,West,267,0.0,222.8,44,0.25,,,0.00,VWS V14.01,2013-07-20 17:40:00,
2013-07-20 13:45:00,93.3,70.0,29.79,NNW,333,0.0,222.8,47,0.25,,,0.00,VWS V14.01,2013-07-20 17:45:00,
2013-07-20 13:51:00,92.8,68.7,29.79,NNW,333,0.0,222.8,46,0.25,,,0.00,VWS V14.01,2013-07-20 17:51:00,
2013-07-20 13:56:00,92.8,68.5,29.79,NW,316,0.0,222.8,45,0.25,,,0.00,VWS V14.01,2013-07-20 17:56:00,
2013-07-20 14:01:00,92.8,67.8,29.78,WNW,300,0.0,222.8,44,0.25,,,0.00,VWS V14.01,2013-07-20 18:01:00,
2013-07-20 14:06:00,93.1,68.2,29.78,West,263,0.0,222.8,44,0.25,,,0.00,VWS V14.01,2013-07-20 18:06:00,
2013-07-20 14:12:00,93.2,67.6,29.78,NNW,338,0.0,222.8,43,0.25,,,0.00,VWS V14.01,2013-07-20 18:12:00,
2013-07-20 14:17:00,93.0,68.0,29.78,NNW,338,0.0,222.8,44,0.25,,,0.00,VWS V14.01,2013-07-20 18:17:00,
2013-07-20 14:22:00,93.1,69.0,29.78,NE,45,0.0,222.8,46,0.25,,,0.00,VWS V14.01,2013-07-20 18:22:00,
2013-07-20 14:27:00,93.2,69.4,29.78,West,277,0.0,222.8,46,0.25,,,0.00,VWS V14.01,2013-07-20 18:27:00,
2013-07-20 14:33:00,93.3,69.7,29.78,NNE,25,0.0,222.8,46,0.25,,,0.00,VWS V14.01,2013-07-20 18:33:00,
2013-07-20 14:38:00,93.3,69.8,29.78,NNE,25,0.0,222.8,46,0.25,,,0.00,VWS V14.01,2013-07-20 18:38:00,
2013-07-20 14:43:00,90.6,67.6,29.79,NNW,330,6.8,222.8,47,0.25,,,0.00,VWS V14.01,2013-07-20 18:43:00,
2013-07-20 14:49:00,85.6,71.0,29.80,NE,51,5.7,222.8,62,0.25,,,0.00,VWS V14.01,2013-07-20 18:49:00,
2013-07-20 14:54:00,83.5,71.1,29.79,NNW,329,0.0,222.8,66,0.25,,,0.00,VWS V14.01,2013-07-20 18:54:00,
2013-07-20 14:59:00,83.6,71.5,29.79,NW,316,2.4,222.8,67,0.25,,,0.00,VWS V14.01,2013-07-20 18:59:00,
2013-07-20 15:05:00,84.6,71.3,29.79,NW,316,0.0,222.8,64,0.25,,,0.00,VWS V14.01,2013-07-20 19:05:00,
2013-07-20 15:10:00,85.7,71.3,29.79,WNW,294,0.0,222.8,62,0.25,,,0.00,VWS V14.01,2013-07-20 19:10:00,
2013-07-20 15:15:00,86.6,71.8,29.78,WNW,294,0.0,222.8,61,0.25,,,0.00,VWS V14.01,2013-07-20 19:15:00,
2013-07-20 15:20:00,88.3,71.6,29.78,WNW,294,0.0,222.8,58,0.25,,,0.00,VWS V14.01,2013-07-20 19:20:00,
2013-07-20 15:26:00,90.0,70.9,29.78,NNE,32,0.0,222.8,54,0.25,,,0.00,VWS V14.01,2013-07-20 19:26:00,
2013-07-20 15:31:00,91.5,70.2,29.78,NNE,32,0.0,222.8,50,0.25,,,0.00,VWS V14.01,2013-07-20 19:31:00,
2013-07-20 15:36:00,92.2,68.6,29.78,WSW,255,0.0,222.8,46,0.25,,,0.00,VWS V14.01,2013-07-20 19:36:00,
2013-07-20 15:42:00,92.8,69.2,29.78,SW,221,3.0,222.8,46,0.25,,,0.00,VWS V14.01,2013-07-20 19:42:00,
2013-07-20 15:48:00,93.7,70.3,29.77,SSE,153,0.0,222.8,47,0.25,,,0.00,VWS V14.01,2013-07-20 19:48:00,
2013-07-20 15:53:00,94.2,69.4,29.77,West,259,0.0,222.8,45,0.25,,,0.00,VWS V14.01,2013-07-20 19:53:00,
2013-07-20 15:59:00,94.5,67.7,29.77,East,90,0.0,222.8,42,0.25,,,0.00,VWS V14.01,2013-07-20 19:59:00,
2013-07-20 16:04:00,94.7,68.4,29.77,NW,318,0.0,222.8,42,0.25,,,0.00,VWS V14.01,2013-07-20 20:04:00,
2013-07-20 16:09:00,94.9,69.3,29.78,NNE,22,4.7,222.8,44,0.25,,,0.00,VWS V14.01,2013-07-20 20:09:00,
2013-07-20 16:16:00,95.0,67.8,29.78,North,6,0.0,222.8,41,0.25,,,0.00,VWS V14.01,2013-07-20 20:16:00,
2013-07-20 16:21:00,94.5,67.0,29.78,NNW,336,2.1,222.8,41,0.25,,,0.00,VWS V14.01,2013-07-20 20:21:00,
2013-07-20 16:27:00,94.9,67.0,29.78,SW,217,0.0,222.8,40,0.25,,,0.00,VWS V14.01,2013-07-20 20:27:00,
2013-07-20 16:32:00,95.1,66.6,29.78,West,273,0.0,222.8,40,0.25,,,0.00,VWS V14.01,2013-07-20 20:32:00,
2013-07-20 16:38:00,95.1,65.4,29.78,NW,325,0.0,222.8,38,0.25,,,0.00,VWS V14.01,2013-07-20 20:38:00,
2013-07-20 16:44:00,95.0,66.1,29.78,North,359,0.0,222.8,39,0.25,,,0.00,VWS V14.01,2013-07-20 20:44:00,
2013-07-20 16:49:00,94.8,66.5,29.77,NNE,25,0.0,222.8,40,0.25,,,0.00,VWS V14.01,2013-07-20 20:49:00,
2013-07-20 16:54:00,95.8,66.9,29.78,NNE,25,0.0,222.8,39,0.25,,,0.00,VWS V14.01,2013-07-20 20:54:00,
2013-07-20 17:00:00,96.7,67.2,29.78,NNE,25,0.0,222.8,38,0.25,,,0.00,VWS V14.01,2013-07-20 21:00:00,
2013-07-20 17:05:00,96.8,66.9,29.78,NW,311,1.8,222.8,38,0.25,,,0.00,VWS V14.01,2013-07-20 21:05:00,
2013-07-20 17:10:00,95.8,66.8,29.78,WSW,238,0.0,222.8,39,0.25,,,0.00,VWS V14.01,2013-07-20 21:10:00,
2013-07-20 17:16:00,95.2,66.7,29.78,WSW,238,0.0,222.8,39,0.25,,,0.00,VWS V14.01,2013-07-20 21:16:00,
2013-07-20 17:21:00,94.5,67.2,29.79,WSW,238,0.0,222.8,41,0.25,,,0.00,VWS V14.01,2013-07-20 21:21:00,
2013-07-20 17:26:00,93.3,68.2,29.79,WSW,238,0.0,222.8,44,0.25,,,0.00,VWS V14.01,2013-07-20 21:26:00,
2013-07-20 17:31:00,92.1,68.6,29.79,WSW,238,0.0,222.8,46,0.25,,,0.00,VWS V14.01,2013-07-20 21:31:00,
2013-07-20 17:37:00,91.4,69.1,29.79,WSW,238,0.0,222.8,48,0.25,,,0.00,VWS V14.01,2013-07-20 21:37:00,
2013-07-20 17:43:00,91.1,69.3,29.79,WSW,238,0.0,222.8,49,0.25,,,0.00,VWS V14.01,2013-07-20 21:43:00,
2013-07-20 17:48:00,90.6,69.2,29.79,WSW,238,0.0,222.8,50,0.25,,,0.00,VWS V14.01,2013-07-20 21:48:00,
2013-07-20 17:53:00,90.0,68.8,29.79,WSW,238,0.0,222.8,50,0.25,,,0.00,VWS V14.01,2013-07-20 21:53:00,
2013-07-20 17:58:00,89.8,69.2,29.79,WSW,238,0.0,222.8,51,0.25,,,0.00,VWS V14.01,2013-07-20 21:58:00,
2013-07-20 18:03:00,89.5,69.1,29.79,WSW,238,0.0,222.8,51,0.25,,,0.00,VWS V14.01,2013-07-20 22:03:00,
2013-07-20 18:09:00,89.4,70.5,29.79,WSW,238,0.0,222.8,54,0.25,,,0.00,VWS V14.01,2013-07-20 22:09:00,
2013-07-20 18:14:00,90.0,69.1,29.79,WSW,238,0.0,222.8,50,0.25,,,0.00,VWS V14.01,2013-07-20 22:14:00,
2013-07-20 18:20:00,90.1,69.2,29.79,WSW,238,0.0,222.8,50,0.25,,,0.00,VWS V14.01,2013-07-20 22:20:00,
2013-07-20 18:25:00,90.2,69.8,29.79,WSW,238,0.0,222.8,51,0.25,,,0.00,VWS V14.01,2013-07-20 22:25:00,
2013-07-20 18:30:00,89.6,69.2,29.79,WSW,238,0.0,222.8,51,0.25,,,0.00,VWS V14.01,2013-07-20 22:30:00,
2013-07-20 18:35:00,88.9,68.6,29.79,WSW,238,0.0,222.8,51,0.25,,,0.00,VWS V14.01,2013-07-20 22:35:00,
2013-07-20 18:40:00,88.6,68.5,29.79,WSW,238,0.0,222.8,52,0.25,,,0.00,VWS V14.01,2013-07-20 22:40:00,
2013-07-20 18:46:00,88.5,68.5,29.80,WSW,238,0.0,222.8,52,0.25,,,0.00,VWS V14.01,2013-07-20 22:46:00,
2013-07-20 18:51:00,88.3,68.8,29.80,WSW,238,0.0,222.8,53,0.25,,,0.00,VWS V14.01,2013-07-20 22:51:00,
2013-07-20 18:56:00,88.0,68.9,29.80,WSW,238,0.0,222.8,53,0.25,,,0.00,VWS V14.01,2013-07-20 22:56:00,
2013-07-20 19:02:00,87.7,69.5,29.80,WSW,238,0.0,222.8,55,0.25,,,0.00,VWS V14.01,2013-07-20 23:02:00,
2013-07-20 19:07:00,87.3,69.2,29.80,WSW,238,0.0,222.8,55,0.25,,,0.00,VWS V14.01,2013-07-20 23:07:00,
2013-07-20 19:12:00,87.1,69.3,29.81,WSW,238,0.0,222.8,56,0.25,,,0.00,VWS V14.01,2013-07-20 23:12:00,
2013-07-20 19:17:00,86.9,69.6,29.81,WSW,238,0.0,222.8,56,0.25,,,0.00,VWS V14.01,2013-07-20 23:17:00,
2013-07-20 19:23:00,86.6,69.9,29.81,WSW,238,0.0,222.8,58,0.25,,,0.00,VWS V14.01,2013-07-20 23:23:00,
2013-07-20 19:28:00,86.0,70.3,29.81,WSW,238,0.0,222.8,60,0.25,,,0.00,VWS V14.01,2013-07-20 23:28:00,
2013-07-20 19:33:00,85.6,70.1,29.81,WSW,238,0.0,222.8,60,0.25,,,0.00,VWS V14.01,2013-07-20 23:33:00,
2013-07-20 19:39:00,85.4,70.3,29.82,WSW,238,0.0,222.8,61,0.25,,,0.00,VWS V14.01,2013-07-20 23:39:00,
2013-07-20 19:44:00,85.0,70.8,29.82,WSW,238,0.0,222.8,63,0.25,,,0.00,VWS V14.01,2013-07-20 23:44:00,
2013-07-20 19:50:00,84.5,71.2,29.82,WSW,238,0.0,222.8,64,0.25,,,0.00,VWS V14.01,2013-07-20 23:50:00,
2013-07-20 19:55:00,84.1,71.7,29.82,WSW,238,0.0,222.8,66,0.25,,,0.00,VWS V14.01,2013-07-20 23:55:00,
2013-07-20 20:00:00,83.5,71.3,29.83,WSW,238,0.0,222.8,67,0.25,,,0.00,VWS V14.01,2013-07-21 00:00:00,
2013-07-20 20:05:00,83.1,71.0,29.83,WSW,238,0.0,222.8,67,0.25,,,0.00,VWS V14.01,2013-07-21 00:05:00,
2013-07-20 20:12:00,82.6,70.7,29.83,WSW,238,0.0,222.8,67,0.25,,,0.00,VWS V14.01,2013-07-21 00:12:00,
2013-07-20 20:17:00,82.3,69.3,29.84,WSW,238,0.0,222.8,65,0.25,,,0.00,VWS V14.01,2013-07-21 00:17:00,
2013-07-20 20:23:00,82.2,68.3,29.84,WNW,302,0.0,222.8,63,0.25,,,0.00,VWS V14.01,2013-07-21 00:23:00,
2013-07-20 20:29:00,81.7,67.1,29.84,WNW,302,0.0,222.8,61,0.25,,,0.00,VWS V14.01,2013-07-21 00:29:00,
2013-07-20 20:34:00,81.4,66.9,29.84,WNW,302,0.0,222.8,62,0.25,,,0.00,VWS V14.01,2013-07-21 00:34:00,
2013-07-20 20:40:00,81.2,66.7,29.84,WNW,302,0.0,222.8,62,0.25,,,0.00,VWS V14.01,2013-07-21 00:40:00,
2013-07-20 20:46:00,81.1,66.7,29.85,WNW,302,0.0,222.8,62,0.25,,,0.00,VWS V14.01,2013-07-21 00:46:00,
2013-07-20 20:52:00,80.9,66.6,29.85,WNW,302,0.0,222.8,62,0.25,,,0.00,VWS V14.01,2013-07-21 00:52:00,
2013-07-20 20:57:00,81.0,66.9,29.86,WNW,302,0.0,222.8,62,0.25,,,0.00,VWS V14.01,2013-07-21 00:57:00,
2013-07-20 21:03:00,80.7,67.3,29.85,WNW,302,0.0,222.8,64,0.25,,,0.00,VWS V14.01,2013-07-21 01:03:00,
2013-07-20 21:08:00,80.4,67.5,29.86,WNW,302,0.0,222.8,65,0.25,,,0.00,VWS V14.01,2013-07-21 01:08:00,
2013-07-20 21:14:00,80.5,67.8,29.86,WNW,302,0.0,222.8,65,0.25,,,0.00,VWS V14.01,2013-07-21 01:14:00,
2013-07-20 21:20:00,80.4,68.4,29.86,WNW,302,0.0,222.8,67,0.25,,,0.00,VWS V14.01,2013-07-21 01:20:00,
2013-07-20 21:25:00,80.1,68.3,29.86,WNW,302,0.0,222.8,67,0.25,,,0.00,VWS V14.01,2013-07-21 01:25:00,
2013-07-20 21:30:00,80.1,68.5,29.87,WNW,302,0.0,222.8,68,0.25,,,0.00,VWS V14.01,2013-07-21 01:30:00,
2013-07-20 21:39:00,80.2,67.8,29.87,WNW,302,0.0,222.8,66,0.25,,,0.00,VWS V14.01,2013-07-21 01:39:00,
2013-07-20 21:44:00,80.8,67.5,29.87,WNW,302,0.0,222.8,64,0.25,,,0.00,VWS V14.01,2013-07-21 01:44:00,
2013-07-20 21:50:00,81.0,67.7,29.87,WNW,302,0.0,222.8,64,0.25,,,0.00,VWS V14.01,2013-07-21 01:50:00,
2013-07-20 21:55:00,81.3,67.8,29.87,WNW,302,0.0,222.8,64,0.25,,,0.00,VWS V14.01,2013-07-21 01:55:00,
2013-07-20 22:01:00,81.1,67.3,29.87,WNW,302,0.0,222.8,63,0.25,,,0.00,VWS V14.01,2013-07-21 02:01:00,
2013-07-20 22:07:00,80.8,67.4,29.87,WNW,302,0.0,222.8,64,0.25,,,0.00,VWS V14.01,2013-07-21 02:07:00,
2013-07-20 22:13:00,80.4,67.8,29.87,WNW,302,0.0,222.8,65,0.25,,,0.00,VWS V14.01,2013-07-21 02:13:00,
2013-07-20 22:19:00,80.1,68.1,29.87,WNW,302,0.0,222.8,67,0.25,,,0.00,VWS V14.01,2013-07-21 02:19:00,
2013-07-20 22:24:00,79.7,68.2,29.88,WNW,302,0.0,222.8,68,0.25,,,0.00,VWS V14.01,2013-07-21 02:24:00,
2013-07-20 22:30:00,79.2,68.1,29.88,WNW,302,0.0,222.8,69,0.25,,,0.00,VWS V14.01,2013-07-21 02:30:00,
2013-07-20 22:36:00,79.1,68.4,29.88,WNW,302,0.0,222.8,70,0.25,,,0.00,VWS V14.01,2013-07-21 02:36:00,
2013-07-20 22:42:00,78.9,68.4,29.88,WNW,302,0.0,222.8,70,0.25,,,0.00,VWS V14.01,2013-07-21 02:42:00,
2013-07-20 22:47:00,78.7,68.4,29.88,WNW,302,0.0,222.8,71,0.25,,,0.00,VWS V14.01,2013-07-21 02:47:00,
2013-07-20 22:52:00,78.5,68.5,29.88,WNW,302,0.0,222.8,71,0.25,,,0.00,VWS V14.01,2013-07-21 02:52:00,
2013-07-20 22:58:00,78.7,68.8,29.88,WNW,302,0.0,222.8,72,0.25,,,0.00,VWS V14.01,2013-07-21 02:58:00,
2013-07-20 23:03:00,78.3,68.6,29.88,WNW,302,0.0,222.8,72,0.25,,,0.00,VWS V14.01,2013-07-21 03:03:00,
2013-07-20 23:09:00,78.3,68.9,29.88,WNW,302,0.0,222.8,73,0.25,,,0.00,VWS V14.01,2013-07-21 03:09:00,
2013-07-20 23:15:00,78.0,68.9,29.89,WNW,302,0.0,222.8,74,0.25,,,0.00,VWS V14.01,2013-07-21 03:15:00,
2013-07-20 23:21:00,77.9,69.0,29.89,WNW,302,0.0,222.8,74,0.25,,,0.00,VWS V14.01,2013-07-21 03:21:00,
2013-07-20 23:26:00,77.9,69.1,29.89,WNW,302,0.0,222.8,74,0.25,,,0.00,VWS V14.01,2013-07-21 03:26:00,
2013-07-20 23:32:00,77.9,69.2,29.89,WNW,302,0.0,222.8,75,0.25,,,0.00,VWS V14.01,2013-07-21 03:32:00,
2013-07-20 23:38:00,77.8,69.2,29.89,WNW,302,0.0,222.8,75,0.25,,,0.00,VWS V14.01,2013-07-21 03:38:00,
2013-07-20 23:43:00,77.9,69.5,29.90,WNW,302,0.0,222.8,75,0.25,,,0.00,VWS V14.01,2013-07-21 03:43:00,
2013-07-20 23:49:00,77.7,69.5,29.90,WNW,302,0.0,222.8,76,0.25,,,0.00,VWS V14.01,2013-07-21 03:49:00,
2013-07-20 23:54:00,77.7,69.5,29.90,WNW,302,0.0,222.8,76,0.25,,,0.00,VWS V14.01,2013-07-21 03:54:00,
2013-07-20 23:59:00,77.4,69.4,29.90,WNW,302,0.0,222.8,76,0.25,,,0.00,VWS V14.01,2013-07-21 03:59:00,